sensor_id;sensor_type;location;lat;lon;timestamp;temperature;humidity
26051;DHT22;13825;53.496;10.020;2023-04-29T00:01:44;8.70;99.90
26051;DHT22;13825;53.496;10.020;2023-04-29T00:04:12;8.80;99.90
26051;DHT22;13825;53.496;10.020;2023-04-29T00:06:39;8.70;99.90
26051;DHT22;13825;53.496;10.020;2023-04-29T00:09:07;8.80;99.90
26051;DHT22;13825;53.496;10.020;2023-04-29T00:11:34;8.90;99.90
26051;DHT22;13825;53.496;10.020;2023-04-29T00:14:06;8.80;99.90
26051;DHT22;13825;53.496;10.020;2023-04-29T00:16:36;8.80;99.90
26051;DHT22;13825;53.496;10.020;2023-04-29T00:19:03;8.70;99.90
26051;DHT22;13825;53.496;10.020;2023-04-29T00:21:31;8.80;99.90
26051;DHT22;13825;53.496;10.020;2023-04-29T00:23:58;8.70;99.90
26051;DHT22;13825;53.496;10.020;2023-04-29T00:26:25;8.70;99.90
26051;DHT22;13825;53.496;10.020;2023-04-29T00:28:53;8.70;99.90
26051;DHT22;13825;53.496;10.020;2023-04-29T00:31:19;8.70;99.90
26051;DHT22;13825;53.496;10.020;2023-04-29T00:33:47;8.80;99.90
26051;DHT22;13825;53.496;10.020;2023-04-29T00:36:15;8.70;99.90
26051;DHT22;13825;53.496;10.020;2023-04-29T00:38:43;8.70;99.90
26051;DHT22;13825;53.496;10.020;2023-04-29T00:41:10;8.70;99.90
26051;DHT22;13825;53.496;10.020;2023-04-29T00:43:41;8.60;99.90
26051;DHT22;13825;53.496;10.020;2023-04-29T00:46:10;8.60;99.90
26051;DHT22;13825;53.496;10.020;2023-04-29T00:48:38;8.60;99.90
26051;DHT22;13825;53.496;10.020;2023-04-29T00:51:06;8.60;99.90
26051;DHT22;13825;53.496;10.020;2023-04-29T00:53:33;8.60;99.90
26051;DHT22;13825;53.496;10.020;2023-04-29T00:56:02;8.60;99.90
26051;DHT22;13825;53.496;10.020;2023-04-29T00:58:31;8.60;99.90
26051;DHT22;13825;53.496;10.020;2023-04-29T01:01:00;8.60;99.90
26051;DHT22;13825;53.496;10.020;2023-04-29T01:03:31;8.60;99.90
26051;DHT22;13825;53.496;10.020;2023-04-29T01:06:10;8.50;99.90
26051;DHT22;13825;53.496;10.020;2023-04-29T01:08:50;8.60;99.90
26051;DHT22;13825;53.496;10.020;2023-04-29T01:11:21;8.40;99.90
26051;DHT22;13825;53.496;10.020;2023-04-29T01:13:50;8.50;99.90
26051;DHT22;13825;53.496;10.020;2023-04-29T01:16:24;8.50;99.90
26051;DHT22;13825;53.496;10.020;2023-04-29T01:18:54;8.60;99.90
26051;DHT22;13825;53.496;10.020;2023-04-29T01:21:28;8.60;99.90
26051;DHT22;13825;53.496;10.020;2023-04-29T01:23:58;8.60;99.90
26051;DHT22;13825;53.496;10.020;2023-04-29T01:26:30;8.50;99.90
26051;DHT22;13825;53.496;10.020;2023-04-29T01:29:12;8.50;99.90
26051;DHT22;13825;53.496;10.020;2023-04-29T01:31:50;8.50;99.90
26051;DHT22;13825;53.496;10.020;2023-04-29T01:34:25;8.50;99.90
26051;DHT22;13825;53.496;10.020;2023-04-29T01:37:02;8.40;99.90
26051;DHT22;13825;53.496;10.020;2023-04-29T01:39:35;8.50;99.90
26051;DHT22;13825;53.496;10.020;2023-04-29T01:42:09;8.50;99.90
26051;DHT22;13825;53.496;10.020;2023-04-29T01:44:41;8.50;99.90
26051;DHT22;13825;53.496;10.020;2023-04-29T01:47:12;8.50;99.90
26051;DHT22;13825;53.496;10.020;2023-04-29T01:49:39;8.50;99.90
26051;DHT22;13825;53.496;10.020;2023-04-29T01:52:06;8.50;99.90
26051;DHT22;13825;53.496;10.020;2023-04-29T01:54:34;8.40;99.90
26051;DHT22;13825;53.496;10.020;2023-04-29T01:57:01;8.40;99.90
26051;DHT22;13825;53.496;10.020;2023-04-29T01:59:28;8.40;99.90
26051;DHT22;13825;53.496;10.020;2023-04-29T02:01:55;8.50;99.90
26051;DHT22;13825;53.496;10.020;2023-04-29T02:04:23;8.40;99.90
26051;DHT22;13825;53.496;10.020;2023-04-29T02:06:50;8.40;99.90
26051;DHT22;13825;53.496;10.020;2023-04-29T02:09:18;8.40;99.90
26051;DHT22;13825;53.496;10.020;2023-04-29T02:11:46;8.40;99.90
26051;DHT22;13825;53.496;10.020;2023-04-29T02:14:13;8.50;99.90
26051;DHT22;13825;53.496;10.020;2023-04-29T02:16:43;8.30;99.90
26051;DHT22;13825;53.496;10.020;2023-04-29T02:19:09;8.30;99.90
26051;DHT22;13825;53.496;10.020;2023-04-29T02:21:36;8.30;99.90
26051;DHT22;13825;53.496;10.020;2023-04-29T02:24:04;8.30;99.90
26051;DHT22;13825;53.496;10.020;2023-04-29T02:26:31;8.30;99.90
26051;DHT22;13825;53.496;10.020;2023-04-29T02:29:00;8.30;99.90
26051;DHT22;13825;53.496;10.020;2023-04-29T02:31:29;8.30;99.90
26051;DHT22;13825;53.496;10.020;2023-04-29T02:33:56;8.30;99.90
26051;DHT22;13825;53.496;10.020;2023-04-29T02:36:23;8.30;99.90
26051;DHT22;13825;53.496;10.020;2023-04-29T02:38:50;8.20;99.90
26051;DHT22;13825;53.496;10.020;2023-04-29T02:41:18;8.20;99.90
26051;DHT22;13825;53.496;10.020;2023-04-29T02:43:45;8.30;99.90
26051;DHT22;13825;53.496;10.020;2023-04-29T02:46:19;8.30;99.90
26051;DHT22;13825;53.496;10.020;2023-04-29T02:48:46;8.30;99.90
26051;DHT22;13825;53.496;10.020;2023-04-29T02:51:13;8.30;99.90
26051;DHT22;13825;53.496;10.020;2023-04-29T02:53:40;8.30;99.90
26051;DHT22;13825;53.496;10.020;2023-04-29T02:56:06;8.30;99.90
26051;DHT22;13825;53.496;10.020;2023-04-29T02:58:33;8.40;99.90
26051;DHT22;13825;53.496;10.020;2023-04-29T03:01:00;8.30;99.90
26051;DHT22;13825;53.496;10.020;2023-04-29T03:03:28;8.20;99.90
26051;DHT22;13825;53.496;10.020;2023-04-29T03:05:55;8.30;99.90
26051;DHT22;13825;53.496;10.020;2023-04-29T03:08:22;8.20;99.90
26051;DHT22;13825;53.496;10.020;2023-04-29T03:10:49;8.30;99.90
26051;DHT22;13825;53.496;10.020;2023-04-29T03:13:16;8.30;99.90
26051;DHT22;13825;53.496;10.020;2023-04-29T03:15:43;8.30;99.90
26051;DHT22;13825;53.496;10.020;2023-04-29T03:18:10;8.30;99.90
26051;DHT22;13825;53.496;10.020;2023-04-29T03:20:38;8.20;99.90
26051;DHT22;13825;53.496;10.020;2023-04-29T03:23:05;8.30;99.90
26051;DHT22;13825;53.496;10.020;2023-04-29T03:25:36;8.20;99.90
26051;DHT22;13825;53.496;10.020;2023-04-29T03:28:03;8.20;99.90
26051;DHT22;13825;53.496;10.020;2023-04-29T03:30:30;8.20;99.90
26051;DHT22;13825;53.496;10.020;2023-04-29T03:32:57;8.10;99.90
26051;DHT22;13825;53.496;10.020;2023-04-29T03:35:24;8.10;99.90
26051;DHT22;13825;53.496;10.020;2023-04-29T03:37:52;8.10;99.90
26051;DHT22;13825;53.496;10.020;2023-04-29T03:40:19;8.10;99.90
26051;DHT22;13825;53.496;10.020;2023-04-29T03:42:46;8.10;99.90
26051;DHT22;13825;53.496;10.020;2023-04-29T03:45:16;8.00;99.90
26051;DHT22;13825;53.496;10.020;2023-04-29T03:47:44;8.10;99.90
26051;DHT22;13825;53.496;10.020;2023-04-29T03:50:11;8.00;99.90
26051;DHT22;13825;53.496;10.020;2023-04-29T03:52:38;8.00;99.90
26051;DHT22;13825;53.496;10.020;2023-04-29T03:55:08;8.00;99.90
26051;DHT22;13825;53.496;10.020;2023-04-29T03:57:35;8.00;99.90
26051;DHT22;13825;53.496;10.020;2023-04-29T04:00:02;8.00;99.90
26051;DHT22;13825;53.496;10.020;2023-04-29T04:02:29;8.00;99.90
26051;DHT22;13825;53.496;10.020;2023-04-29T04:04:55;8.00;99.90
26051;DHT22;13825;53.496;10.020;2023-04-29T04:07:23;8.00;99.90
26051;DHT22;13825;53.496;10.020;2023-04-29T04:09:50;8.10;99.90
26051;DHT22;13825;53.496;10.020;2023-04-29T04:12:18;8.10;99.90
26051;DHT22;13825;53.496;10.020;2023-04-29T04:14:45;8.00;99.90
26051;DHT22;13825;53.496;10.020;2023-04-29T04:17:12;8.10;99.90
26051;DHT22;13825;53.496;10.020;2023-04-29T04:19:39;8.20;99.90
26051;DHT22;13825;53.496;10.020;2023-04-29T04:22:06;8.10;99.90
26051;DHT22;13825;53.496;10.020;2023-04-29T04:24:33;8.20;99.90
26051;DHT22;13825;53.496;10.020;2023-04-29T04:27:00;8.10;99.90
26051;DHT22;13825;53.496;10.020;2023-04-29T04:29:28;8.10;99.90
26051;DHT22;13825;53.496;10.020;2023-04-29T04:31:55;8.10;99.90
26051;DHT22;13825;53.496;10.020;2023-04-29T04:34:22;8.00;99.90
26051;DHT22;13825;53.496;10.020;2023-04-29T04:36:49;8.00;99.90
26051;DHT22;13825;53.496;10.020;2023-04-29T04:39:16;8.10;99.90
26051;DHT22;13825;53.496;10.020;2023-04-29T04:41:43;8.20;99.90
26051;DHT22;13825;53.496;10.020;2023-04-29T04:44:10;8.20;99.90
26051;DHT22;13825;53.496;10.020;2023-04-29T04:46:39;8.30;99.90
26051;DHT22;13825;53.496;10.020;2023-04-29T04:49:06;8.40;99.90
26051;DHT22;13825;53.496;10.020;2023-04-29T04:51:33;8.40;99.90
26051;DHT22;13825;53.496;10.020;2023-04-29T04:54:01;8.40;99.90
26051;DHT22;13825;53.496;10.020;2023-04-29T04:56:28;8.50;99.90
26051;DHT22;13825;53.496;10.020;2023-04-29T04:58:55;8.60;99.90
26051;DHT22;13825;53.496;10.020;2023-04-29T05:01:22;8.70;99.90
26051;DHT22;13825;53.496;10.020;2023-04-29T05:03:50;8.70;99.90
26051;DHT22;13825;53.496;10.020;2023-04-29T05:06:17;8.70;99.90
26051;DHT22;13825;53.496;10.020;2023-04-29T05:08:44;8.70;99.90
26051;DHT22;13825;53.496;10.020;2023-04-29T05:11:15;8.80;99.90
26051;DHT22;13825;53.496;10.020;2023-04-29T05:13:46;8.70;99.90
26051;DHT22;13825;53.496;10.020;2023-04-29T05:16:13;8.70;99.90
26051;DHT22;13825;53.496;10.020;2023-04-29T05:18:41;8.60;99.90
26051;DHT22;13825;53.496;10.020;2023-04-29T05:21:11;8.40;99.90
26051;DHT22;13825;53.496;10.020;2023-04-29T05:23:38;8.50;99.90
26051;DHT22;13825;53.496;10.020;2023-04-29T05:26:05;8.50;99.90
26051;DHT22;13825;53.496;10.020;2023-04-29T05:28:32;8.40;99.90
26051;DHT22;13825;53.496;10.020;2023-04-29T05:30:59;8.60;99.90
26051;DHT22;13825;53.496;10.020;2023-04-29T05:33:26;8.60;99.90
26051;DHT22;13825;53.496;10.020;2023-04-29T05:35:53;8.70;99.90
26051;DHT22;13825;53.496;10.020;2023-04-29T05:38:21;8.70;99.90
26051;DHT22;13825;53.496;10.020;2023-04-29T05:40:53;8.80;99.90
26051;DHT22;13825;53.496;10.020;2023-04-29T05:43:20;8.90;99.90
26051;DHT22;13825;53.496;10.020;2023-04-29T05:45:47;8.90;99.90
26051;DHT22;13825;53.496;10.020;2023-04-29T05:48:14;8.70;99.90
26051;DHT22;13825;53.496;10.020;2023-04-29T05:50:41;8.80;99.90
26051;DHT22;13825;53.496;10.020;2023-04-29T05:53:08;8.80;99.90
26051;DHT22;13825;53.496;10.020;2023-04-29T05:55:36;8.70;99.90
26051;DHT22;13825;53.496;10.020;2023-04-29T05:58:03;8.70;99.90
26051;DHT22;13825;53.496;10.020;2023-04-29T06:00:29;8.80;99.90
26051;DHT22;13825;53.496;10.020;2023-04-29T06:02:57;8.90;99.90
26051;DHT22;13825;53.496;10.020;2023-04-29T06:05:24;8.80;99.90
26051;DHT22;13825;53.496;10.020;2023-04-29T06:07:51;8.90;99.90
26051;DHT22;13825;53.496;10.020;2023-04-29T06:10:18;8.80;99.90
26051;DHT22;13825;53.496;10.020;2023-04-29T06:12:46;9.00;99.90
26051;DHT22;13825;53.496;10.020;2023-04-29T06:15:16;9.00;99.90
26051;DHT22;13825;53.496;10.020;2023-04-29T06:17:43;9.30;99.90
26051;DHT22;13825;53.496;10.020;2023-04-29T06:20:10;9.30;99.90
26051;DHT22;13825;53.496;10.020;2023-04-29T06:22:37;9.40;99.90
26051;DHT22;13825;53.496;10.020;2023-04-29T06:25:08;9.50;99.90
26051;DHT22;13825;53.496;10.020;2023-04-29T06:27:38;9.50;99.90
26051;DHT22;13825;53.496;10.020;2023-04-29T06:30:08;9.40;99.90
26051;DHT22;13825;53.496;10.020;2023-04-29T06:32:35;9.50;99.90
26051;DHT22;13825;53.496;10.020;2023-04-29T06:35:02;9.60;99.90
26051;DHT22;13825;53.496;10.020;2023-04-29T06:37:29;9.60;99.90
26051;DHT22;13825;53.496;10.020;2023-04-29T06:39:55;9.70;99.90
26051;DHT22;13825;53.496;10.020;2023-04-29T06:42:22;9.70;99.90
26051;DHT22;13825;53.496;10.020;2023-04-29T06:44:49;9.70;99.90
26051;DHT22;13825;53.496;10.020;2023-04-29T06:47:17;9.70;99.90
26051;DHT22;13825;53.496;10.020;2023-04-29T06:49:44;9.70;99.90
26051;DHT22;13825;53.496;10.020;2023-04-29T06:52:11;9.70;99.90
26051;DHT22;13825;53.496;10.020;2023-04-29T06:54:38;9.90;99.90
26051;DHT22;13825;53.496;10.020;2023-04-29T06:57:05;9.90;99.90
26051;DHT22;13825;53.496;10.020;2023-04-29T06:59:32;9.90;99.90
26051;DHT22;13825;53.496;10.020;2023-04-29T07:01:59;10.00;99.90
26051;DHT22;13825;53.496;10.020;2023-04-29T07:04:27;9.80;99.90
26051;DHT22;13825;53.496;10.020;2023-04-29T07:06:55;9.90;99.90
26051;DHT22;13825;53.496;10.020;2023-04-29T07:09:22;10.00;99.90
26051;DHT22;13825;53.496;10.020;2023-04-29T07:11:51;10.10;99.90
26051;DHT22;13825;53.496;10.020;2023-04-29T07:14:17;10.20;99.90
26051;DHT22;13825;53.496;10.020;2023-04-29T07:16:46;10.20;99.90
26051;DHT22;13825;53.496;10.020;2023-04-29T07:19:13;10.10;99.90
26051;DHT22;13825;53.496;10.020;2023-04-29T07:21:42;10.10;99.90
26051;DHT22;13825;53.496;10.020;2023-04-29T07:24:08;10.20;99.90
26051;DHT22;13825;53.496;10.020;2023-04-29T07:26:35;10.20;99.90
26051;DHT22;13825;53.496;10.020;2023-04-29T07:29:02;10.30;99.90
26051;DHT22;13825;53.496;10.020;2023-04-29T07:31:29;10.40;99.90
26051;DHT22;13825;53.496;10.020;2023-04-29T07:33:56;10.40;99.90
26051;DHT22;13825;53.496;10.020;2023-04-29T07:36:23;10.50;99.90
26051;DHT22;13825;53.496;10.020;2023-04-29T07:38:51;10.60;99.90
26051;DHT22;13825;53.496;10.020;2023-04-29T07:41:18;10.60;99.90
26051;DHT22;13825;53.496;10.020;2023-04-29T07:43:45;10.80;99.90
26051;DHT22;13825;53.496;10.020;2023-04-29T07:46:12;11.00;99.90
26051;DHT22;13825;53.496;10.020;2023-04-29T07:48:39;11.00;99.90
26051;DHT22;13825;53.496;10.020;2023-04-29T07:51:06;11.10;99.90
26051;DHT22;13825;53.496;10.020;2023-04-29T07:53:38;11.20;97.20
26051;DHT22;13825;53.496;10.020;2023-04-29T07:56:07;11.10;99.90
26051;DHT22;13825;53.496;10.020;2023-04-29T07:58:34;11.20;99.70
26051;DHT22;13825;53.496;10.020;2023-04-29T08:01:05;11.40;99.70
26051;DHT22;13825;53.496;10.020;2023-04-29T08:03:33;11.60;92.70
26051;DHT22;13825;53.496;10.020;2023-04-29T08:06:00;11.40;94.90
26051;DHT22;13825;53.496;10.020;2023-04-29T08:08:28;11.70;95.90
26051;DHT22;13825;53.496;10.020;2023-04-29T08:10:55;11.90;90.60
26051;DHT22;13825;53.496;10.020;2023-04-29T08:13:23;11.90;91.20
26051;DHT22;13825;53.496;10.020;2023-04-29T08:15:50;12.00;93.20
26051;DHT22;13825;53.496;10.020;2023-04-29T08:18:18;12.00;95.40
26051;DHT22;13825;53.496;10.020;2023-04-29T08:20:46;12.00;91.80
26051;DHT22;13825;53.496;10.020;2023-04-29T08:23:13;12.10;92.80
26051;DHT22;13825;53.496;10.020;2023-04-29T08:25:46;12.30;93.20
26051;DHT22;13825;53.496;10.020;2023-04-29T08:28:16;12.30;90.30
26051;DHT22;13825;53.496;10.020;2023-04-29T08:30:45;12.10;88.40
26051;DHT22;13825;53.496;10.020;2023-04-29T08:33:12;12.30;88.70
26051;DHT22;13825;53.496;10.020;2023-04-29T08:35:39;12.50;90.50
26051;DHT22;13825;53.496;10.020;2023-04-29T08:38:07;12.30;90.10
26051;DHT22;13825;53.496;10.020;2023-04-29T08:40:35;12.40;85.80
26051;DHT22;13825;53.496;10.020;2023-04-29T08:43:02;12.40;89.90
26051;DHT22;13825;53.496;10.020;2023-04-29T08:45:30;12.50;87.30
26051;DHT22;13825;53.496;10.020;2023-04-29T08:48:00;12.60;84.40
26051;DHT22;13825;53.496;10.020;2023-04-29T08:50:29;12.50;83.90
26051;DHT22;13825;53.496;10.020;2023-04-29T08:52:56;12.50;88.40
26051;DHT22;13825;53.496;10.020;2023-04-29T08:55:23;12.50;86.80
26051;DHT22;13825;53.496;10.020;2023-04-29T08:57:53;12.60;90.40
26051;DHT22;13825;53.496;10.020;2023-04-29T09:00:22;12.70;85.50
26051;DHT22;13825;53.496;10.020;2023-04-29T09:02:55;12.80;85.70
26051;DHT22;13825;53.496;10.020;2023-04-29T09:05:24;12.80;87.80
26051;DHT22;13825;53.496;10.020;2023-04-29T09:07:52;12.50;87.60
26051;DHT22;13825;53.496;10.020;2023-04-29T09:10:19;12.90;85.70
26051;DHT22;13825;53.496;10.020;2023-04-29T09:12:46;13.00;85.70
26051;DHT22;13825;53.496;10.020;2023-04-29T09:15:13;13.00;84.40
26051;DHT22;13825;53.496;10.020;2023-04-29T09:17:41;13.10;84.80
26051;DHT22;13825;53.496;10.020;2023-04-29T09:20:29;13.00;86.20
26051;DHT22;13825;53.496;10.020;2023-04-29T09:22:57;13.10;80.70
26051;DHT22;13825;53.496;10.020;2023-04-29T09:25:25;13.40;83.30
26051;DHT22;13825;53.496;10.020;2023-04-29T09:27:53;13.50;83.20
26051;DHT22;13825;53.496;10.020;2023-04-29T09:30:20;13.60;89.90
26051;DHT22;13825;53.496;10.020;2023-04-29T09:33:03;13.70;82.20
26051;DHT22;13825;53.496;10.020;2023-04-29T09:35:31;13.70;75.00
26051;DHT22;13825;53.496;10.020;2023-04-29T09:38:09;13.60;80.30
26051;DHT22;13825;53.496;10.020;2023-04-29T09:40:36;13.80;82.30
26051;DHT22;13825;53.496;10.020;2023-04-29T09:43:10;13.70;66.70
26051;DHT22;13825;53.496;10.020;2023-04-29T09:45:39;13.70;74.50
26051;DHT22;13825;53.496;10.020;2023-04-29T09:48:07;13.90;67.00
26051;DHT22;13825;53.496;10.020;2023-04-29T09:50:37;14.10;70.20
26051;DHT22;13825;53.496;10.020;2023-04-29T09:53:05;14.10;76.80
26051;DHT22;13825;53.496;10.020;2023-04-29T09:55:33;14.00;72.40
26051;DHT22;13825;53.496;10.020;2023-04-29T09:58:00;13.90;70.10
26051;DHT22;13825;53.496;10.020;2023-04-29T10:00:30;14.10;73.00
26051;DHT22;13825;53.496;10.020;2023-04-29T10:02:59;14.50;61.30
26051;DHT22;13825;53.496;10.020;2023-04-29T10:05:27;14.50;63.10
26051;DHT22;13825;53.496;10.020;2023-04-29T10:07:57;14.40;64.80
26051;DHT22;13825;53.496;10.020;2023-04-29T10:10:26;14.50;62.60
26051;DHT22;13825;53.496;10.020;2023-04-29T10:12:54;14.70;58.50
26051;DHT22;13825;53.496;10.020;2023-04-29T10:15:26;15.10;51.20
26051;DHT22;13825;53.496;10.020;2023-04-29T10:17:58;15.30;46.20
26051;DHT22;13825;53.496;10.020;2023-04-29T10:20:26;15.20;57.90
26051;DHT22;13825;53.496;10.020;2023-04-29T10:22:54;15.10;46.70
26051;DHT22;13825;53.496;10.020;2023-04-29T10:25:25;15.10;60.80
26051;DHT22;13825;53.496;10.020;2023-04-29T10:27:54;15.40;47.30
26051;DHT22;13825;53.496;10.020;2023-04-29T10:30:21;15.50;51.40
26051;DHT22;13825;53.496;10.020;2023-04-29T10:32:49;15.40;46.20
26051;DHT22;13825;53.496;10.020;2023-04-29T10:35:18;15.40;45.90
26051;DHT22;13825;53.496;10.020;2023-04-29T10:37:47;15.70;46.40
26051;DHT22;13825;53.496;10.020;2023-04-29T10:40:16;15.60;33.60
26051;DHT22;13825;53.496;10.020;2023-04-29T10:42:48;15.40;38.30
26051;DHT22;13825;53.496;10.020;2023-04-29T10:45:23;15.00;44.50
26051;DHT22;13825;53.496;10.020;2023-04-29T10:48:15;15.40;39.00
26051;DHT22;13825;53.496;10.020;2023-04-29T10:51:00;15.50;18.40
26051;DHT22;13825;53.496;10.020;2023-04-29T10:53:28;15.40;32.20
26051;DHT22;13825;53.496;10.020;2023-04-29T10:55:57;15.60;43.90
26051;DHT22;13825;53.496;10.020;2023-04-29T10:58:37;15.60;34.20
26051;DHT22;13825;53.496;10.020;2023-04-29T11:01:05;15.60;17.20
26051;DHT22;13825;53.496;10.020;2023-04-29T11:03:52;15.60;34.60
26051;DHT22;13825;53.496;10.020;2023-04-29T11:06:38;15.60;28.60
26051;DHT22;13825;53.496;10.020;2023-04-29T11:09:12;15.40;27.00
26051;DHT22;13825;53.496;10.020;2023-04-29T11:11:46;15.80;21.90
26051;DHT22;13825;53.496;10.020;2023-04-29T11:14:22;16.10;33.70
26051;DHT22;13825;53.496;10.020;2023-04-29T11:16:52;16.40;14.10
26051;DHT22;13825;53.496;10.020;2023-04-29T11:19:19;16.10;22.90
26051;DHT22;13825;53.496;10.020;2023-04-29T11:21:46;16.20;24.10
26051;DHT22;13825;53.496;10.020;2023-04-29T11:24:13;16.00;27.60
26051;DHT22;13825;53.496;10.020;2023-04-29T11:26:43;16.50;22.00
26051;DHT22;13825;53.496;10.020;2023-04-29T11:29:11;16.60;21.60
26051;DHT22;13825;53.496;10.020;2023-04-29T11:31:39;16.50;14.50
26051;DHT22;13825;53.496;10.020;2023-04-29T11:34:06;16.00;29.60
26051;DHT22;13825;53.496;10.020;2023-04-29T11:36:34;15.70;25.20
26051;DHT22;13825;53.496;10.020;2023-04-29T11:39:02;15.50;32.80
26051;DHT22;13825;53.496;10.020;2023-04-29T11:41:29;15.20;27.60
26051;DHT22;13825;53.496;10.020;2023-04-29T11:43:58;15.80;35.50
26051;DHT22;13825;53.496;10.020;2023-04-29T11:46:29;16.00;33.50
26051;DHT22;13825;53.496;10.020;2023-04-29T11:48:58;16.40;37.20
26051;DHT22;13825;53.496;10.020;2023-04-29T11:51:26;15.80;26.70
26051;DHT22;13825;53.496;10.020;2023-04-29T11:53:53;15.40;29.10
26051;DHT22;13825;53.496;10.020;2023-04-29T11:56:21;15.50;36.60
26051;DHT22;13825;53.496;10.020;2023-04-29T11:58:52;16.00;27.90
26051;DHT22;13825;53.496;10.020;2023-04-29T12:01:20;16.60;36.50
26051;DHT22;13825;53.496;10.020;2023-04-29T12:03:48;16.40;19.00
26051;DHT22;13825;53.496;10.020;2023-04-29T12:06:16;16.10;26.70
26051;DHT22;13825;53.496;10.020;2023-04-29T12:08:46;16.00;26.10
26051;DHT22;13825;53.496;10.020;2023-04-29T12:11:13;16.20;17.70
26051;DHT22;13825;53.496;10.020;2023-04-29T12:13:40;16.20;29.30
26051;DHT22;13825;53.496;10.020;2023-04-29T12:16:07;16.30;27.00
26051;DHT22;13825;53.496;10.020;2023-04-29T12:18:35;16.00;27.50
26051;DHT22;13825;53.496;10.020;2023-04-29T12:21:03;16.10;23.80
26051;DHT22;13825;53.496;10.020;2023-04-29T12:23:31;16.60;31.70
26051;DHT22;13825;53.496;10.020;2023-04-29T12:25:59;16.70;18.50
26051;DHT22;13825;53.496;10.020;2023-04-29T12:28:26;17.00;26.10
26051;DHT22;13825;53.496;10.020;2023-04-29T12:30:53;16.80;18.10
26051;DHT22;13825;53.496;10.020;2023-04-29T12:33:22;16.50;22.50
26051;DHT22;13825;53.496;10.020;2023-04-29T12:35:49;15.70;26.00
26051;DHT22;13825;53.496;10.020;2023-04-29T12:38:19;15.80;32.50
26051;DHT22;13825;53.496;10.020;2023-04-29T12:40:48;16.50;30.50
26051;DHT22;13825;53.496;10.020;2023-04-29T12:43:16;16.70;25.50
26051;DHT22;13825;53.496;10.020;2023-04-29T12:45:43;16.10;18.80
26051;DHT22;13825;53.496;10.020;2023-04-29T12:48:11;15.70;24.00
26051;DHT22;13825;53.496;10.020;2023-04-29T12:50:39;15.90;25.80
26051;DHT22;13825;53.496;10.020;2023-04-29T12:53:07;16.20;29.40
26051;DHT22;13825;53.496;10.020;2023-04-29T12:55:35;16.60;20.40
26051;DHT22;13825;53.496;10.020;2023-04-29T12:58:05;16.50;20.70
26051;DHT22;13825;53.496;10.020;2023-04-29T13:00:33;16.50;20.20
26051;DHT22;13825;53.496;10.020;2023-04-29T13:03:02;16.70;27.70
26051;DHT22;13825;53.496;10.020;2023-04-29T13:05:28;16.60;21.40
26051;DHT22;13825;53.496;10.020;2023-04-29T13:07:55;16.40;23.30
26051;DHT22;13825;53.496;10.020;2023-04-29T13:10:23;16.40;29.70
26051;DHT22;13825;53.496;10.020;2023-04-29T13:12:50;16.80;19.60
26051;DHT22;13825;53.496;10.020;2023-04-29T13:15:18;16.80;30.10
26051;DHT22;13825;53.496;10.020;2023-04-29T13:17:46;16.60;15.40
26051;DHT22;13825;53.496;10.020;2023-04-29T13:20:12;16.80;25.70
26051;DHT22;13825;53.496;10.020;2023-04-29T13:22:39;16.80;12.60
26051;DHT22;13825;53.496;10.020;2023-04-29T13:25:08;17.00;8.00
26051;DHT22;13825;53.496;10.020;2023-04-29T13:27:35;17.00;5.20
26051;DHT22;13825;53.496;10.020;2023-04-29T13:30:02;16.40;1.00
26051;DHT22;13825;53.496;10.020;2023-04-29T13:32:30;16.20;1.00
26051;DHT22;13825;53.496;10.020;2023-04-29T13:34:58;16.20;1.00
26051;DHT22;13825;53.496;10.020;2023-04-29T13:37:25;16.10;2.90
26051;DHT22;13825;53.496;10.020;2023-04-29T13:39:52;16.10;1.00
26051;DHT22;13825;53.496;10.020;2023-04-29T13:42:19;16.40;1.00
26051;DHT22;13825;53.496;10.020;2023-04-29T13:44:46;16.40;1.00
26051;DHT22;13825;53.496;10.020;2023-04-29T13:47:13;16.40;1.00
26051;DHT22;13825;53.496;10.020;2023-04-29T13:49:42;16.90;1.00
26051;DHT22;13825;53.496;10.020;2023-04-29T13:52:09;17.10;1.00
26051;DHT22;13825;53.496;10.020;2023-04-29T13:54:36;17.00;1.00
26051;DHT22;13825;53.496;10.020;2023-04-29T13:57:04;16.80;1.00
26051;DHT22;13825;53.496;10.020;2023-04-29T13:59:31;17.10;1.00
26051;DHT22;13825;53.496;10.020;2023-04-29T14:01:58;17.30;1.00
26051;DHT22;13825;53.496;10.020;2023-04-29T14:04:26;17.30;1.00
26051;DHT22;13825;53.496;10.020;2023-04-29T14:06:55;17.60;1.00
26051;DHT22;13825;53.496;10.020;2023-04-29T14:09:22;17.90;1.00
26051;DHT22;13825;53.496;10.020;2023-04-29T14:11:49;17.70;1.00
26051;DHT22;13825;53.496;10.020;2023-04-29T14:14:16;17.90;1.00
26051;DHT22;13825;53.496;10.020;2023-04-29T14:16:43;18.10;5.40
26051;DHT22;13825;53.496;10.020;2023-04-29T14:19:10;18.10;1.00
26051;DHT22;13825;53.496;10.020;2023-04-29T14:21:37;18.80;1.00
26051;DHT22;13825;53.496;10.020;2023-04-29T14:24:05;18.70;1.00
26051;DHT22;13825;53.496;10.020;2023-04-29T14:26:32;18.80;1.00
26051;DHT22;13825;53.496;10.020;2023-04-29T14:28:59;18.90;1.00
26051;DHT22;13825;53.496;10.020;2023-04-29T14:31:27;18.80;1.00
26051;DHT22;13825;53.496;10.020;2023-04-29T14:33:54;18.10;1.00
26051;DHT22;13825;53.496;10.020;2023-04-29T14:36:24;17.70;1.00
26051;DHT22;13825;53.496;10.020;2023-04-29T14:38:52;18.30;1.00
26051;DHT22;13825;53.496;10.020;2023-04-29T14:41:23;18.70;1.00
26051;DHT22;13825;53.496;10.020;2023-04-29T14:43:50;18.40;1.00
26051;DHT22;13825;53.496;10.020;2023-04-29T14:46:17;18.50;1.00
26051;DHT22;13825;53.496;10.020;2023-04-29T14:48:46;18.50;1.00
26051;DHT22;13825;53.496;10.020;2023-04-29T14:51:14;18.50;1.00
26051;DHT22;13825;53.496;10.020;2023-04-29T14:53:40;19.10;1.00
26051;DHT22;13825;53.496;10.020;2023-04-29T14:56:07;19.10;1.00
26051;DHT22;13825;53.496;10.020;2023-04-29T14:58:36;19.60;1.00
26051;DHT22;13825;53.496;10.020;2023-04-29T15:01:03;18.80;1.00
26051;DHT22;13825;53.496;10.020;2023-04-29T15:03:30;18.30;1.00
26051;DHT22;13825;53.496;10.020;2023-04-29T15:05:57;18.40;1.00
26051;DHT22;13825;53.496;10.020;2023-04-29T15:08:26;18.20;1.00
26051;DHT22;13825;53.496;10.020;2023-04-29T15:10:53;18.90;1.00
26051;DHT22;13825;53.496;10.020;2023-04-29T15:13:20;18.50;1.00
26051;DHT22;13825;53.496;10.020;2023-04-29T15:15:49;18.00;1.00
26051;DHT22;13825;53.496;10.020;2023-04-29T15:18:16;18.00;1.00
26051;DHT22;13825;53.496;10.020;2023-04-29T15:20:43;19.00;1.00
26051;DHT22;13825;53.496;10.020;2023-04-29T15:23:10;18.90;1.00
26051;DHT22;13825;53.496;10.020;2023-04-29T15:25:37;17.50;1.00
26051;DHT22;13825;53.496;10.020;2023-04-29T15:28:04;17.20;1.00
26051;DHT22;13825;53.496;10.020;2023-04-29T15:30:31;17.30;1.00
26051;DHT22;13825;53.496;10.020;2023-04-29T15:32:59;17.20;1.00